Time;durP1;ratioP1;P1;durP2;ratioP2;P2;SDS_P1;SDS_P2;PMS_P1;PMS_P2;Temp;Humidity;BMP_temperature;BMP_pressure;BME280_temperature;BME280_humidity;BME280_pressure;Samples;Min_cycle;Max_cycle;Signal;HPM_P1;HPM_P2
2023/04/13 00:01:00;;;;;;;4.07;0.90;;;9.80;67.90;;;;;;5047719;28;20076;-62
2023/04/13 00:03:29;;;;;;;2.22;0.75;;;9.90;67.90;;;;;;5049235;28;20021;-62
2023/04/13 00:05:55;;;;;;;3.53;1.05;;;9.90;67.90;;;;;;5040765;28;20080;-63
2023/04/13 00:08:21;;;;;;;3.17;1.25;;;9.90;67.80;;;;;;5030543;28;20048;-62
2023/04/13 00:10:49;;;;;;;3.10;0.88;;;9.90;67.80;;;;;;5038320;28;20488;-63
2023/04/13 00:13:17;;;;;;;2.72;0.95;;;9.80;67.90;;;;;;5049402;28;20159;-62
2023/04/13 00:15:43;;;;;;;4.03;1.00;;;9.90;68.10;;;;;;5039145;28;20068;-62
2023/04/13 00:18:10;;;;;;;3.88;1.08;;;9.90;68.10;;;;;;5056066;28;20028;-62
2023/04/13 00:20:36;;;;;;;3.10;1.00;;;9.80;68.10;;;;;;5039867;28;20084;-63
2023/04/13 00:23:02;;;;;;;4.28;1.10;;;9.80;68.20;;;;;;5042089;28;20435;-62
2023/04/13 00:25:28;;;;;;;4.22;1.30;;;9.80;68.10;;;;;;5050151;28;20108;-62
2023/04/13 00:27:54;;;;;;;3.50;1.20;;;9.80;68.20;;;;;;5041638;28;20177;-62
2023/04/13 00:30:20;;;;;;;2.80;0.98;;;9.80;68.30;;;;;;5039987;28;20029;-62
2023/04/13 00:32:47;;;;;;;2.58;0.95;;;9.70;68.30;;;;;;5036598;28;20347;-63
2023/04/13 00:35:23;;;;;;;4.32;1.50;;;9.70;68.40;;;;;;5043162;28;20361;-62
2023/04/13 00:37:50;;;;;;;3.35;0.90;;;9.80;68.40;;;;;;5029426;28;20099;-62
2023/04/13 00:40:17;;;;;;;2.65;0.80;;;9.70;68.40;;;;;;5036631;28;20048;-63
2023/04/13 00:42:45;;;;;;;3.35;1.10;;;9.70;68.40;;;;;;5032783;28;20017;-63
2023/04/13 00:45:12;;;;;;;3.38;0.90;;;9.80;68.60;;;;;;5038261;28;20032;-62
2023/04/13 00:47:40;;;;;;;4.78;1.17;;;9.80;68.70;;;;;;5048080;28;20100;-62
2023/04/13 00:50:06;;;;;;;2.75;1.02;;;9.70;68.60;;;;;;5045499;28;20124;-63
2023/04/13 00:52:39;;;;;;;2.85;0.98;;;9.70;68.60;;;;;;5039487;28;20099;-62
2023/04/13 00:55:06;;;;;;;2.28;0.95;;;9.70;68.70;;;;;;5050278;28;20123;-63
2023/04/13 00:57:33;;;;;;;2.45;0.90;;;9.70;68.90;;;;;;5032951;28;20025;-63
2023/04/13 01:03:41;;;;;;;2.95;1.20;;;9.70;69.30;;;;;;5032910;28;20045;-63
2023/04/13 01:06:23;;;;;;;1.95;0.82;;;9.60;69.30;;;;;;5030213;28;20104;-63
2023/04/13 01:08:59;;;;;;;5.80;1.33;;;9.60;69.60;;;;;;5033667;28;20125;-62
2023/04/13 01:11:35;;;;;;;4.90;1.60;;;9.60;69.90;;;;;;5030738;28;20040;-62
2023/04/13 01:14:30;;;;;;;2.28;0.90;;;9.60;70.20;;;;;;5032827;28;20076;-63
2023/04/13 01:17:04;;;;;;;3.22;1.08;;;9.60;70.50;;;;;;5033086;28;20033;-63
2023/04/13 01:19:50;;;;;;;2.33;1.13;;;9.60;70.60;;;;;;5026735;28;20026;-63
2023/04/13 01:22:24;;;;;;;2.97;1.08;;;9.50;70.70;;;;;;5005947;28;20026;-62
2023/04/13 01:25:16;;;;;;;1.13;0.85;;;9.50;71.00;;;;;;5032648;28;20029;-63
2023/04/13 01:27:54;;;;;;;3.05;1.00;;;9.50;71.40;;;;;;5033409;28;20036;-62
2023/04/13 01:30:23;;;;;;;2.58;1.00;;;9.50;71.60;;;;;;5032818;28;20451;-62
2023/04/13 01:32:53;;;;;;;2.55;0.93;;;9.50;71.80;;;;;;5033279;28;20057;-62
2023/04/13 01:35:24;;;;;;;4.38;1.10;;;9.50;72.00;;;;;;5032573;28;20033;-62
2023/04/13 01:37:54;;;;;;;2.45;0.90;;;9.50;72.20;;;;;;5015332;28;20069;-63
2023/04/13 01:40:25;;;;;;;2.10;1.00;;;9.50;72.40;;;;;;5032284;28;20362;-63
2023/04/13 01:42:54;;;;;;;3.13;0.90;;;9.60;72.50;;;;;;5034172;28;20480;-62
2023/04/13 01:45:22;;;;;;;3.90;1.02;;;9.60;72.50;;;;;;5032370;28;20021;-62
2023/04/13 01:48:18;;;;;;;3.72;1.27;;;9.60;72.60;;;;;;5031698;28;20112;-62
2023/04/13 01:51:10;;;;;;;4.00;1.10;;;9.60;72.80;;;;;;5026659;28;20025;-62
2023/04/13 01:53:55;;;;;;;5.32;1.23;;;9.60;72.80;;;;;;5031501;28;20119;-63
2023/04/13 01:56:25;;;;;;;3.05;0.93;;;9.60;73.00;;;;;;5013303;28;20087;-62
2023/04/13 01:58:58;;;;;;;5.32;1.42;;;9.60;73.00;;;;;;5015007;28;20454;-62
2023/04/13 02:01:25;;;;;;;2.85;1.00;;;9.60;73.10;;;;;;5031537;28;20025;-63
2023/04/13 02:03:52;;;;;;;3.90;1.13;;;9.60;73.20;;;;;;5032319;28;20060;-62
2023/04/13 02:06:18;;;;;;;3.45;1.02;;;9.60;73.30;;;;;;5030012;28;20332;-62
2023/04/13 02:08:44;;;;;;;4.45;1.35;;;9.60;73.40;;;;;;5031663;28;20033;-62
2023/04/13 02:11:11;;;;;;;3.65;0.98;;;9.70;73.60;;;;;;5007270;28;20467;-62
2023/04/13 02:13:37;;;;;;;4.35;1.10;;;9.70;73.70;;;;;;5031643;28;20454;-62
2023/04/13 02:16:08;;;;;;;4.25;1.20;;;9.70;73.70;;;;;;5031031;28;20026;-62
2023/04/13 02:18:34;;;;;;;2.03;0.98;;;9.70;73.80;;;;;;5031296;28;20132;-62
2023/04/13 02:21:06;;;;;;;4.15;1.58;;;9.70;73.90;;;;;;5031071;28;20045;-62
2023/04/13 02:23:33;;;;;;;4.53;1.08;;;9.70;74.10;;;;;;5032952;28;20447;-62
2023/04/13 02:25:59;;;;;;;6.32;1.10;;;9.70;74.20;;;;;;5031602;28;20021;-62
2023/04/13 02:28:26;;;;;;;3.92;1.17;;;9.70;74.30;;;;;;5032394;28;20357;-62
2023/04/13 02:30:54;;;;;;;3.58;1.20;;;9.80;74.50;;;;;;5031828;28;20155;-61
2023/04/13 02:33:20;;;;;;;4.10;1.13;;;9.80;74.60;;;;;;5032322;28;20370;-62
2023/04/13 02:35:48;;;;;;;3.40;1.13;;;9.80;74.60;;;;;;5030839;28;20029;-61
2023/04/13 02:38:15;;;;;;;3.65;1.23;;;9.80;74.60;;;;;;5032321;28;20431;-62
2023/04/13 02:40:45;;;;;;;5.60;1.30;;;9.80;74.70;;;;;;5030097;28;20025;-62
2023/04/13 02:43:11;;;;;;;3.78;1.23;;;9.80;74.70;;;;;;5032480;28;20272;-62
2023/04/13 02:45:38;;;;;;;6.90;1.60;;;9.80;74.80;;;;;;5014445;28;20021;-63
2023/04/13 02:48:08;;;;;;;3.55;1.20;;;9.80;74.90;;;;;;5032547;28;20116;-63
2023/04/13 02:50:34;;;;;;;2.00;0.88;;;9.80;75.00;;;;;;5030545;28;20026;-63
2023/04/13 02:53:06;;;;;;;1.92;0.93;;;9.70;75.00;;;;;;5037539;28;20052;-63
2023/04/13 02:55:33;;;;;;;3.08;1.10;;;9.70;75.10;;;;;;5033335;28;20041;-63
2023/04/13 02:58:05;;;;;;;1.85;1.08;;;9.70;75.10;;;;;;5036325;28;20036;-63
2023/04/13 03:00:34;;;;;;;5.63;1.08;;;9.70;75.20;;;;;;5033962;28;20382;-63
2023/04/13 03:03:05;;;;;;;3.53;1.20;;;9.70;75.30;;;;;;5036231;28;20440;-63
2023/04/13 03:05:37;;;;;;;3.17;1.17;;;9.70;75.40;;;;;;5034137;28;20335;-63
2023/04/13 03:08:05;;;;;;;4.63;1.20;;;9.70;75.40;;;;;;5022630;28;20378;-63
2023/04/13 03:10:32;;;;;;;4.18;0.98;;;9.70;75.50;;;;;;5034202;28;20037;-62
2023/04/13 03:12:59;;;;;;;3.03;1.00;;;9.70;75.50;;;;;;5032702;28;20029;-63
2023/04/13 03:15:25;;;;;;;4.20;0.90;;;9.70;75.50;;;;;;5044273;28;20179;-63
2023/04/13 03:17:51;;;;;;;3.20;1.23;;;9.70;75.50;;;;;;5053221;28;20100;-63
2023/04/13 03:20:22;;;;;;;2.35;1.10;;;9.70;75.40;;;;;;5040178;28;20377;-63
2023/04/13 03:23:00;;;;;;;2.85;1.20;;;9.80;75.30;;;;;;5040327;28;20028;-63
2023/04/13 03:25:29;;;;;;;2.22;0.90;;;9.70;75.90;;;;;;5036004;28;20036;-63
2023/04/13 03:27:55;;;;;;;2.97;1.10;;;9.70;75.20;;;;;;5034915;28;20031;-63
2023/04/13 03:30:22;;;;;;;5.38;1.30;;;9.70;75.20;;;;;;5033309;28;20024;-63
2023/04/13 03:32:54;;;;;;;3.20;1.02;;;9.70;75.20;;;;;;5038404;28;20044;-63
2023/04/13 03:35:23;;;;;;;3.58;1.15;;;9.60;75.20;;;;;;5038364;28;20088;-63
2023/04/13 03:37:49;;;;;;;2.85;0.98;;;9.60;75.20;;;;;;5047757;28;20037;-63
2023/04/13 03:40:29;;;;;;;3.83;1.35;;;9.60;75.10;;;;;;5046784;28;20040;-63
2023/04/13 03:42:55;;;;;;;2.85;1.23;;;9.60;75.10;;;;;;5038844;28;20021;-63
2023/04/13 03:45:24;;;;;;;3.92;1.25;;;9.60;75.10;;;;;;5027394;28;20025;-63
2023/04/13 03:47:51;;;;;;;4.95;1.42;;;9.60;75.00;;;;;;5026021;28;20116;-63
2023/04/13 03:50:20;;;;;;;5.72;1.20;;;9.60;75.10;;;;;;5042237;28;20071;-63
2023/04/13 03:52:46;;;;;;;2.30;1.10;;;9.60;75.10;;;;;;5039368;28;20068;-63
2023/04/13 03:55:12;;;;;;;1.83;1.13;;;9.60;75.10;;;;;;5040962;28;20029;-63
2023/04/13 03:57:39;;;;;;;3.67;1.40;;;9.60;75.10;;;;;;5045725;28;20036;-63
2023/04/13 04:00:12;;;;;;;4.90;1.30;;;9.60;75.10;;;;;;5039570;28;20029;-63
2023/04/13 04:02:50;;;;;;;4.35;1.35;;;9.50;75.00;;;;;;5040559;28;20046;-63
2023/04/13 04:05:24;;;;;;;4.53;1.40;;;9.50;75.00;;;;;;5037836;28;20109;-63
2023/04/13 04:07:57;;;;;;;3.35;1.40;;;9.50;75.10;;;;;;5034053;28;20021;-62
2023/04/13 04:10:26;;;;;;;5.00;1.30;;;9.50;75.10;;;;;;5035834;28;20090;-63
2023/04/13 04:12:52;;;;;;;5.57;1.55;;;9.50;75.10;;;;;;5032872;28;21672;-63
2023/04/13 04:15:18;;;;;;;5.10;1.55;;;9.50;75.10;;;;;;5034107;28;20093;-63
2023/04/13 04:17:46;;;;;;;4.30;1.70;;;9.50;75.00;;;;;;5033899;28;20086;-63
2023/04/13 04:20:13;;;;;;;5.60;1.70;;;9.50;75.00;;;;;;5034864;28;20025;-63
2023/04/13 04:22:40;;;;;;;3.00;1.20;;;9.50;75.00;;;;;;5033551;28;20029;-63
2023/04/13 04:25:07;;;;;;;5.28;1.58;;;9.40;75.00;;;;;;5031373;28;20090;-63
2023/04/13 04:27:37;;;;;;;4.70;1.30;;;9.40;75.00;;;;;;5034082;28;20086;-63
2023/04/13 04:30:05;;;;;;;5.57;1.73;;;9.50;75.00;;;;;;5035055;28;20025;-63
2023/04/13 04:32:35;;;;;;;2.58;1.30;;;9.50;75.00;;;;;;5019693;28;20029;-63
2023/04/13 04:35:09;;;;;;;3.47;1.35;;;9.40;74.90;;;;;;5032006;28;20059;-63
2023/04/13 04:37:40;;;;;;;2.95;1.35;;;9.40;75.00;;;;;;5033474;28;20043;-63
2023/04/13 04:40:11;;;;;;;2.67;1.25;;;9.40;75.10;;;;;;5031543;28;20036;-63
2023/04/13 04:42:38;;;;;;;6.28;1.60;;;9.40;75.10;;;;;;5032293;28;20036;-63
2023/04/13 04:45:10;;;;;;;;;;;9.50;75.00;;;;;;5030246;28;20109;-63
2023/04/13 04:47:43;;;;;;;5.05;1.60;;;9.50;74.90;;;;;;5030345;28;19909;-63
2023/04/13 04:50:21;;;;;;;3.67;1.60;;;9.40;74.90;;;;;;5016122;28;20034;-63
2023/04/13 04:52:53;;;;;;;5.72;1.80;;;9.40;74.90;;;;;;5031316;28;20419;-63
2023/04/13 04:55:22;;;;;;;3.78;1.60;;;9.40;75.00;;;;;;5032996;28;20112;-63
2023/04/13 04:57:48;;;;;;;3.88;1.67;;;9.40;75.00;;;;;;5014784;28;20129;-62
2023/04/13 05:00:16;;;;;;;5.55;2.13;;;9.40;75.00;;;;;;5032748;28;20087;-63
2023/04/13 05:02:53;;;;;;;5.72;2.00;;;9.40;75.10;;;;;;5031357;28;20061;-63
2023/04/13 05:05:19;;;;;;;5.22;1.95;;;9.40;75.20;;;;;;5032188;28;20428;-63
2023/04/13 05:07:47;;;;;;;6.13;2.10;;;9.40;75.20;;;;;;5038936;28;20112;-62
2023/04/13 05:10:13;;;;;;;5.03;2.05;;;9.40;75.30;;;;;;5015351;28;20025;-63
2023/04/13 05:12:46;;;;;;;6.50;2.20;;;9.50;75.30;;;;;;5037229;28;20064;-63
2023/04/13 05:15:12;;;;;;;8.02;2.55;;;9.50;75.30;;;;;;5035217;28;20025;-62
2023/04/13 05:17:38;;;;;;;4.95;2.20;;;9.50;75.20;;;;;;5043463;28;20024;-62
2023/04/13 05:20:05;;;;;;;9.30;2.60;;;9.60;75.20;;;;;;5036121;28;20371;-62
2023/04/13 05:22:42;;;;;;;8.88;2.85;;;9.50;75.20;;;;;;5039433;28;20060;-63
2023/04/13 05:25:08;;;;;;;6.00;2.55;;;9.50;75.30;;;;;;5035280;28;20361;-62
2023/04/13 05:27:34;;;;;;;6.97;2.78;;;9.50;75.30;;;;;;5048771;28;20021;-63
2023/04/13 05:30:00;;;;;;;8.27;2.90;;;9.60;75.40;;;;;;5053732;28;20024;-63
2023/04/13 05:32:26;;;;;;;11.52;3.60;;;9.60;76.10;;;;;;5046058;28;20025;-62
2023/04/13 05:34:55;;;;;;;10.10;3.55;;;9.60;75.40;;;;;;5045182;28;20402;-62
2023/04/13 05:37:24;;;;;;;9.90;3.50;;;9.60;75.40;;;;;;5044707;28;20017;-62
2023/04/13 05:39:50;;;;;;;7.68;3.30;;;9.70;75.40;;;;;;5053370;28;20017;-62
2023/04/13 05:42:19;;;;;;;8.85;3.70;;;9.70;75.40;;;;;;5036180;28;20090;-62
2023/04/13 05:44:45;;;;;;;10.88;4.05;;;9.80;75.40;;;;;;5050743;28;20029;-62
2023/04/13 05:47:12;;;;;;;8.35;4.22;;;9.90;75.40;;;;;;5046139;28;20017;-62
2023/04/13 05:49:41;;;;;;;9.73;4.10;;;9.90;75.30;;;;;;5037022;28;20035;-62
2023/04/13 05:52:09;;;;;;;8.02;3.72;;;10.00;75.20;;;;;;5037094;28;20028;-63
2023/04/13 05:54:42;;;;;;;10.02;3.83;;;10.10;75.10;;;;;;5047171;28;20029;-62
2023/04/13 05:57:08;;;;;;;10.23;4.03;;;10.20;75.00;;;;;;5038296;28;20024;-63
2023/04/13 05:59:36;;;;;;;9.15;3.17;;;10.30;74.70;;;;;;5043075;28;20086;-62
2023/04/13 06:02:02;;;;;;;12.43;3.97;;;10.40;74.50;;;;;;5037989;28;20055;-62
2023/04/13 06:04:30;;;;;;;9.60;3.45;;;10.50;74.10;;;;;;5039189;28;20108;-62
2023/04/13 06:06:56;;;;;;;8.80;3.38;;;10.50;74.10;;;;;;5032049;28;20013;-62
2023/04/13 06:09:22;;;;;;;9.30;3.53;;;10.50;74.10;;;;;;5032188;28;20022;-62
2023/04/13 06:11:48;;;;;;;8.05;2.55;;;10.50;74.20;;;;;;5031951;28;20068;-63
2023/04/13 06:14:16;;;;;;;7.78;3.47;;;10.40;74.20;;;;;;5029178;28;20029;-62
2023/04/13 06:16:42;;;;;;;10.95;3.22;;;10.40;74.30;;;;;;5028794;28;20022;-62
2023/04/13 06:19:08;;;;;;;10.23;3.50;;;10.40;74.40;;;;;;5033332;28;20470;-63
2023/04/13 06:21:34;;;;;;;9.60;4.15;;;10.40;74.50;;;;;;5031805;28;20018;-63
2023/04/13 06:23:59;;;;;;;7.63;3.22;;;10.40;74.50;;;;;;5030598;28;20430;-62
2023/04/13 06:26:31;;;;;;;9.70;3.42;;;10.30;74.50;;;;;;5031050;28;20022;-63
2023/04/13 06:28:57;;;;;;;8.48;3.60;;;10.30;74.60;;;;;;5030552;28;20026;-63
2023/04/13 06:31:26;;;;;;;9.80;3.80;;;10.30;74.70;;;;;;5032180;28;20091;-63
2023/04/13 06:33:53;;;;;;;9.25;3.80;;;10.20;74.80;;;;;;5026590;28;20414;-63
2023/04/13 06:36:24;;;;;;;9.18;3.75;;;10.20;74.90;;;;;;5029332;28;20026;-63
2023/04/13 06:38:51;;;;;;;9.00;3.45;;;10.20;75.00;;;;;;5032022;28;20098;-63
2023/04/13 06:41:18;;;;;;;8.65;3.45;;;10.10;75.00;;;;;;5032050;28;20024;-62
2023/04/13 06:43:46;;;;;;;7.18;3.28;;;10.10;75.00;;;;;;5028650;28;20346;-63
2023/04/13 06:46:21;;;;;;;7.28;3.42;;;10.10;75.00;;;;;;5032161;28;20030;-62
2023/04/13 06:48:49;;;;;;;6.63;2.72;;;10.10;75.00;;;;;;5032002;28;20032;-63
2023/04/13 06:51:18;;;;;;;6.70;3.05;;;10.10;75.00;;;;;;5014665;28;20116;-62
2023/04/13 06:53:44;;;;;;;6.55;2.85;;;10.10;74.90;;;;;;5030480;28;20025;-62
2023/04/13 06:56:10;;;;;;;6.43;2.88;;;10.10;74.80;;;;;;5030761;28;20033;-62
2023/04/13 06:58:36;;;;;;;7.78;2.80;;;10.10;75.50;;;;;;5030728;28;20110;-62
2023/04/13 07:01:03;;;;;;;9.00;3.30;;;10.10;74.80;;;;;;5032399;28;20091;-63
2023/04/13 07:03:32;;;;;;;7.40;3.15;;;10.10;74.80;;;;;;5030050;28;20092;-63
2023/04/13 07:05:58;;;;;;;8.38;3.40;;;10.10;75.00;;;;;;5031352;28;20025;-63
2023/04/13 07:08:24;;;;;;;5.68;2.65;;;10.10;75.10;;;;;;5032517;28;20040;-62
2023/04/13 07:10:56;;;;;;;7.68;3.35;;;10.10;75.80;;;;;;5032201;28;20029;-62
2023/04/13 07:13:35;;;;;;;6.43;2.85;;;10.10;75.30;;;;;;5028207;28;20029;-63
2023/04/13 07:16:02;;;;;;;5.65;2.50;;;10.00;75.40;;;;;;5027844;28;20021;-63
2023/04/13 07:18:30;;;;;;;7.03;2.95;;;10.00;75.50;;;;;;5031055;28;20347;-62
2023/04/13 07:20:56;;;;;;;7.40;2.60;;;10.10;75.70;;;;;;5032539;28;20025;-62
2023/04/13 07:23:26;;;;;;;6.88;2.70;;;10.10;75.70;;;;;;5031641;28;20089;-62
2023/04/13 07:25:52;;;;;;;6.30;2.08;;;10.10;75.80;;;;;;5030420;28;20442;-62
2023/04/13 07:28:23;;;;;;;6.63;2.53;;;10.10;75.80;;;;;;5028755;28;20033;-62
2023/04/13 07:30:52;;;;;;;6.32;2.28;;;10.10;75.90;;;;;;5026693;28;20095;-63
2023/04/13 07:33:18;;;;;;;9.93;3.25;;;10.00;76.00;;;;;;5031723;28;20029;-62
2023/04/13 07:35:44;;;;;;;6.63;2.40;;;10.00;76.10;;;;;;5028805;28;20048;-64
2023/04/13 07:38:11;;;;;;;6.20;2.30;;;10.00;76.20;;;;;;5035415;28;20140;-75
2023/04/13 07:40:37;;;;;;;7.35;2.30;;;10.10;76.30;;;;;;5033199;28;20037;-65
2023/04/13 07:43:07;;;;;;;6.00;2.20;;;10.10;76.20;;;;;;5035153;28;20030;-66
2023/04/13 07:45:37;;;;;;;4.85;2.10;;;10.20;76.20;;;;;;5033340;28;20018;-65
2023/04/13 07:48:04;;;;;;;5.75;2.13;;;10.30;76.00;;;;;;5034463;28;20037;-63
2023/04/13 07:50:30;;;;;;;7.45;2.13;;;10.30;75.90;;;;;;5033637;28;20322;-61
2023/04/13 07:52:56;;;;;;;8.50;2.75;;;10.40;75.90;;;;;;5041053;28;20017;-62
2023/04/13 07:55:23;;;;;;;7.43;2.58;;;10.40;76.00;;;;;;5034449;28;20048;-61
2023/04/13 07:57:50;;;;;;;8.18;2.20;;;10.40;76.10;;;;;;5027524;28;20024;-61
2023/04/13 08:00:19;;;;;;;7.78;2.63;;;10.40;76.20;;;;;;5045649;28;20453;-63
2023/04/13 08:02:47;;;;;;;7.70;3.10;;;10.40;76.20;;;;;;5033671;28;20373;-63
2023/04/13 08:05:17;;;;;;;7.40;2.33;;;10.60;76.10;;;;;;5034171;28;20416;-64
2023/04/13 08:07:45;;;;;;;5.93;2.38;;;11.10;75.70;;;;;;5033464;28;20064;-63
2023/04/13 08:10:12;;;;;;;8.00;2.90;;;11.30;75.20;;;;;;5024391;28;20033;-64
2023/04/13 08:12:37;;;;;;;7.43;2.50;;;11.40;74.80;;;;;;5034064;28;20133;-63
2023/04/13 08:15:04;;;;;;;7.50;2.70;;;11.50;74.80;;;;;;5034667;28;20068;-62
2023/04/13 08:17:30;;;;;;;6.40;2.80;;;11.40;74.70;;;;;;5038756;28;20119;-63
2023/04/13 08:19:56;;;;;;;8.43;3.03;;;11.30;74.80;;;;;;5038045;28;20403;-63
2023/04/13 08:22:22;;;;;;;11.02;3.05;;;11.30;74.90;;;;;;5043517;28;20021;-63
2023/04/13 08:24:48;;;;;;;10.40;3.28;;;11.20;75.10;;;;;;5055010;28;20021;-64
2023/04/13 08:27:13;;;;;;;9.18;2.80;;;11.20;75.30;;;;;;5044161;28;20067;-63
2023/04/13 08:29:39;;;;;;;9.13;2.65;;;11.10;75.40;;;;;;5030224;28;20032;-63
2023/04/13 08:32:05;;;;;;;8.70;2.58;;;11.10;75.40;;;;;;5050645;28;20090;-63
2023/04/13 08:34:32;;;;;;;12.40;3.10;;;11.00;76.20;;;;;;5038223;28;20561;-64
2023/04/13 08:36:57;;;;;;;11.63;2.72;;;11.00;75.70;;;;;;5041676;28;20116;-63
2023/04/13 08:39:26;;;;;;;7.30;2.63;;;10.90;75.70;;;;;;5046096;28;20041;-64
2023/04/13 08:41:54;;;;;;;7.35;2.25;;;10.90;75.70;;;;;;5042442;28;20122;-63
2023/04/13 08:44:22;;;;;;;8.70;2.53;;;11.00;75.80;;;;;;5033099;28;20092;-63
2023/04/13 08:46:51;;;;;;;8.32;2.80;;;11.00;75.80;;;;;;5043001;28;20021;-63
2023/04/13 08:49:21;;;;;;;;;;;11.00;75.80;;;;;;5044994;28;20060;-63
2023/04/13 08:52:19;;;;;;;9.38;2.72;;;11.00;75.80;;;;;;5032350;28;20231;-63
2023/04/13 08:54:49;;;;;;;6.00;2.35;;;10.90;75.60;;;;;;5044621;28;20078;-64
2023/04/13 08:57:22;;;;;;;8.90;2.53;;;11.00;75.70;;;;;;5054630;28;20029;-63
2023/04/13 08:59:52;;;;;;;9.70;2.95;;;11.10;75.70;;;;;;5030622;28;20032;-63
2023/04/13 09:02:27;;;;;;;7.55;2.75;;;11.10;75.50;;;;;;5047141;28;20522;-63
2023/04/13 09:05:12;;;;;;;11.05;2.33;;;11.20;75.40;;;;;;5046745;28;20107;-63
2023/04/13 09:07:39;;;;;;;9.52;2.05;;;11.20;75.10;;;;;;5034511;28;20021;-63
2023/04/13 09:10:11;;;;;;;;;;;11.30;75.10;;;;;;5018059;28;20021;-63
2023/04/13 09:12:40;;;;;;;9.98;2.50;;;11.40;75.00;;;;;;5035308;28;20342;-63
2023/04/13 09:15:06;;;;;;;8.85;2.28;;;11.40;74.90;;;;;;5034005;28;20040;-63
2023/04/13 09:17:39;;;;;;;8.63;2.40;;;11.50;74.70;;;;;;5034110;28;20439;-63
2023/04/13 09:20:16;;;;;;;8.13;2.33;;;11.50;74.50;;;;;;5032826;28;20022;-63
2023/04/13 09:22:42;;;;;;;11.65;2.50;;;11.50;74.60;;;;;;5035280;28;20108;-63
2023/04/13 09:25:26;;;;;;;11.57;2.67;;;11.50;74.50;;;;;;5040403;28;20059;-63
2023/04/13 09:27:52;;;;;;;9.45;2.60;;;11.70;74.40;;;;;;5054769;28;20040;-64
2023/04/13 09:30:20;;;;;;;9.15;2.40;;;11.70;74.00;;;;;;5037801;28;20035;-64
2023/04/13 09:32:46;;;;;;;10.52;2.15;;;11.80;73.80;;;;;;5031915;28;20029;-64
2023/04/13 09:35:12;;;;;;;9.85;2.05;;;11.90;73.60;;;;;;5040296;28;20041;-63
2023/04/13 09:37:41;;;;;;;9.95;2.00;;;11.80;73.50;;;;;;5040241;28;20058;-63
2023/04/13 09:40:12;;;;;;;6.93;1.98;;;11.70;73.60;;;;;;5033774;28;20087;-64
2023/04/13 09:42:52;;;;;;;7.13;1.75;;;11.80;73.80;;;;;;5030841;28;20033;-64
2023/04/13 09:45:18;;;;;;;5.63;1.33;;;12.00;73.40;;;;;;5034404;28;20103;-64
2023/04/13 09:47:44;;;;;;;8.85;2.15;;;12.30;73.10;;;;;;5034580;28;20029;-64
2023/04/13 09:50:21;;;;;;;10.20;2.03;;;12.40;72.60;;;;;;5033692;28;20095;-63
2023/04/13 09:53:01;;;;;;;10.90;2.25;;;12.50;72.40;;;;;;5032629;28;20037;-64
2023/04/13 09:55:28;;;;;;;8.25;1.83;;;12.40;72.10;;;;;;5033987;28;20104;-63
2023/04/13 09:57:54;;;;;;;7.57;1.85;;;12.40;72.20;;;;;;5035890;28;20338;-63
2023/04/13 10:00:21;;;;;;;10.48;2.15;;;12.50;72.00;;;;;;5031045;28;20032;-63
2023/04/13 10:02:48;;;;;;;7.68;1.90;;;12.80;71.70;;;;;;5030157;28;20069;-63
2023/04/13 10:05:14;;;;;;;9.95;2.03;;;13.00;71.20;;;;;;5035485;28;20108;-63
2023/04/13 10:07:47;;;;;;;9.05;1.92;;;13.10;70.80;;;;;;5021069;28;20125;-63
2023/04/13 10:10:13;;;;;;;12.25;2.08;;;13.10;70.70;;;;;;5030409;28;20029;-63
2023/04/13 10:12:44;;;;;;;9.57;2.33;;;13.20;70.20;;;;;;5031578;28;20025;-63
2023/04/13 10:15:38;;;;;;;7.97;2.55;;;13.30;69.70;;;;;;5032297;28;20041;-63
2023/04/13 10:18:43;;;;;;;8.73;2.38;;;13.50;69.00;;;;;;5032206;28;20656;-63
2023/04/13 10:21:10;;;;;;;6.65;2.03;;;13.50;68.40;;;;;;5033465;28;20029;-63
2023/04/13 10:23:37;;;;;;;12.05;2.50;;;13.50;68.50;;;;;;5032823;28;20036;-63
2023/04/13 10:26:05;;;;;;;7.72;1.92;;;13.60;67.90;;;;;;5032495;28;20044;-63
2023/04/13 10:28:47;;;;;;;9.65;2.22;;;13.70;67.60;;;;;;5018642;28;20075;-63
2023/04/13 10:31:13;;;;;;;7.38;2.00;;;13.90;67.30;;;;;;5032037;28;20033;-63
2023/04/13 10:33:47;;;;;;;10.25;2.40;;;13.90;67.00;;;;;;5031634;28;20026;-63
2023/04/13 10:36:13;;;;;;;12.43;2.13;;;13.70;66.70;;;;;;5028014;28;20116;-62
2023/04/13 10:38:45;;;;;;;11.00;2.10;;;13.70;66.90;;;;;;5033164;28;20129;-62
2023/04/13 10:41:27;;;;;;;9.60;1.73;;;13.50;66.70;;;;;;5033396;28;20056;-62
2023/04/13 10:44:00;;;;;;;9.13;1.83;;;13.30;67.00;;;;;;5029585;28;20034;-62
2023/04/13 10:46:27;;;;;;;7.93;1.42;;;13.20;67.20;;;;;;5033648;28;20037;-63
2023/04/13 10:48:58;;;;;;;8.70;1.77;;;13.00;67.40;;;;;;5032191;28;20026;-62
2023/04/13 10:51:26;;;;;;;11.43;2.10;;;12.90;67.70;;;;;;5031922;28;20060;-62
2023/04/13 10:54:03;;;;;;;12.52;2.35;;;12.70;68.20;;;;;;5030547;28;20021;-62
2023/04/13 10:56:28;;;;;;;10.27;2.65;;;12.60;68.90;;;;;;5032200;28;20088;-62
2023/04/13 10:58:54;;;;;;;7.88;1.98;;;12.80;69.10;;;;;;5029542;28;20037;-62
2023/04/13 11:01:21;;;;;;;8.55;1.98;;;13.00;69.10;;;;;;5032263;28;20021;-61
2023/04/13 11:03:49;;;;;;;8.60;1.75;;;13.20;68.90;;;;;;5030428;28;20041;-61
2023/04/13 11:06:16;;;;;;;7.53;1.80;;;13.30;68.70;;;;;;5032312;28;20136;-61
2023/04/13 11:08:42;;;;;;;8.02;1.60;;;13.20;68.80;;;;;;5031490;28;20025;-62
2023/04/13 11:11:11;;;;;;;7.15;1.75;;;13.10;69.20;;;;;;5033829;28;20354;-62
2023/04/13 11:13:44;;;;;;;6.30;1.65;;;13.00;69.90;;;;;;5036098;28;20037;-62
2023/04/13 11:16:09;;;;;;;8.90;1.80;;;13.10;69.40;;;;;;5034559;28;20347;-62
2023/04/13 11:18:35;;;;;;;7.47;1.70;;;13.40;69.20;;;;;;5035474;28;20034;-63
2023/04/13 11:21:04;;;;;;;7.72;1.67;;;13.70;68.60;;;;;;5036856;28;20057;-62
2023/04/13 11:23:33;;;;;;;7.97;1.70;;;14.00;68.00;;;;;;5034105;28;20029;-62
2023/04/13 11:26:00;;;;;;;6.47;1.25;;;14.10;67.50;;;;;;5032425;28;20035;-62
2023/04/13 11:28:56;;;;;;;9.70;1.88;;;14.00;67.10;;;;;;5034694;28;20048;-63
2023/04/13 11:31:35;;;;;;;10.52;2.42;;;14.00;66.40;;;;;;5035472;28;20042;-64
2023/04/13 11:34:01;;;;;;;7.95;2.08;;;13.80;66.40;;;;;;5017657;28;20044;-63
2023/04/13 11:36:29;;;;;;;8.63;2.13;;;13.80;66.40;;;;;;5035307;28;20037;-63
2023/04/13 11:38:55;;;;;;;7.15;1.50;;;14.00;66.20;;;;;;5035675;28;20122;-63
2023/04/13 11:41:21;;;;;;;5.63;1.23;;;14.20;65.60;;;;;;5036784;28;20029;-64
2023/04/13 11:43:47;;;;;;;7.07;1.70;;;14.40;65.00;;;;;;5035968;28;20025;-62
2023/04/13 11:46:14;;;;;;;3.78;1.38;;;14.50;64.60;;;;;;5034543;28;20044;-62
2023/04/13 11:48:41;;;;;;;8.73;1.65;;;14.60;64.40;;;;;;5034579;28;20030;-62
2023/04/13 11:51:07;;;;;;;8.63;2.05;;;14.60;64.10;;;;;;5035115;28;20032;-62
2023/04/13 11:53:35;;;;;;;8.68;2.10;;;14.60;63.80;;;;;;5036960;28;20044;-62
2023/04/13 11:56:01;;;;;;;7.78;1.73;;;14.70;63.70;;;;;;5037735;28;20072;-63
2023/04/13 11:58:27;;;;;;;7.00;1.65;;;14.70;63.30;;;;;;5031842;28;20406;-63
2023/04/13 12:00:54;;;;;;;6.60;1.95;;;14.60;63.20;;;;;;5039503;28;20389;-64
2023/04/13 12:03:19;;;;;;;8.18;1.85;;;14.50;63.20;;;;;;5049621;28;20041;-64
2023/04/13 12:05:46;;;;;;;10.45;2.00;;;14.40;63.10;;;;;;5030032;28;20129;-63
2023/04/13 12:08:22;;;;;;;11.10;2.17;;;14.50;62.90;;;;;;5034292;28;20048;-62
2023/04/13 12:10:59;;;;;;;9.25;2.13;;;14.40;62.20;;;;;;5034129;28;20029;-63
2023/04/13 12:13:25;;;;;;;8.00;1.95;;;14.40;62.10;;;;;;5035384;28;20095;-63
2023/04/13 12:15:52;;;;;;;10.02;2.05;;;14.40;62.00;;;;;;5034951;28;20116;-62
2023/04/13 12:18:22;;;;;;;7.82;1.80;;;14.40;61.80;;;;;;5028230;28;20040;-63
2023/04/13 12:20:48;;;;;;;7.43;1.75;;;14.40;61.70;;;;;;5035322;28;20128;-62
2023/04/13 12:23:17;;;;;;;5.85;1.33;;;14.40;61.60;;;;;;5028339;28;20059;-63
2023/04/13 12:26:13;;;;;;;8.60;1.42;;;14.50;61.10;;;;;;5025899;28;20328;-64
2023/04/13 12:28:38;;;;;;;10.40;1.90;;;14.50;60.90;;;;;;5025268;28;20041;-64
2023/04/13 12:31:08;;;;;;;6.00;1.77;;;14.40;60.90;;;;;;5033566;28;20378;-61
2023/04/13 12:33:35;;;;;;;6.47;1.52;;;14.30;60.70;;;;;;5032556;28;20029;-63
2023/04/13 12:36:01;;;;;;;9.00;1.83;;;14.40;60.70;;;;;;5033809;28;20447;-64
2023/04/13 12:38:27;;;;;;;15.05;1.60;;;14.50;60.50;;;;;;5033165;28;20109;-63
2023/04/13 12:41:01;;;;;;;9.82;1.92;;;14.60;60.30;;;;;;5025536;28;20206;-63
2023/04/13 12:43:27;;;;;;;6.13;1.50;;;14.70;59.50;;;;;;5031190;28;20038;-64
2023/04/13 12:45:54;;;;;;;8.10;1.60;;;14.70;59.40;;;;;;5027887;28;20034;-63
2023/04/13 12:48:21;;;;;;;8.55;1.70;;;14.80;59.30;;;;;;5017058;28;20446;-64
2023/04/13 12:50:47;;;;;;;8.38;2.22;;;14.90;59.30;;;;;;5024910;28;20042;-63
2023/04/13 12:53:13;;;;;;;8.85;1.92;;;14.90;59.20;;;;;;5015990;28;20336;-63
2023/04/13 12:55:39;;;;;;;6.43;1.60;;;15.00;59.20;;;;;;5024712;28;20033;-64
2023/04/13 12:58:05;;;;;;;10.18;2.10;;;15.00;59.10;;;;;;5015456;28;20084;-63
2023/04/13 13:00:31;;;;;;;7.00;1.55;;;14.90;59.00;;;;;;5022018;28;20022;-64
2023/04/13 13:02:57;;;;;;;9.40;2.10;;;14.90;58.90;;;;;;5023925;28;20615;-63
2023/04/13 13:05:22;;;;;;;9.63;1.95;;;14.70;58.80;;;;;;5010861;28;20024;-63